sensor_id;sensor_type;location;lat;lon;timestamp;P1;durP1;ratioP1;P2;durP2;ratioP2
21084;SDS011;34247;50.064;19.970;2023-03-05T00:00:14;3.42;;;2.45;;
21084;SDS011;34247;50.064;19.970;2023-03-05T00:01:25;2.03;;;1.92;;
21084;SDS011;34247;50.064;19.970;2023-03-05T00:02:37;3.15;;;2.53;;
21084;SDS011;34247;50.064;19.970;2023-03-05T00:03:45;3.28;;;2.85;;
21084;SDS011;34247;50.064;19.970;2023-03-05T00:04:49;4.28;;;3.03;;
21084;SDS011;34247;50.064;19.970;2023-03-05T00:05:55;2.97;;;2.53;;
21084;SDS011;34247;50.064;19.970;2023-03-05T00:06:59;2.42;;;2.25;;
21084;SDS011;34247;50.064;19.970;2023-03-05T00:08:03;2.22;;;2.05;;
21084;SDS011;34247;50.064;19.970;2023-03-05T00:09:14;3.25;;;2.67;;
21084;SDS011;34247;50.064;19.970;2023-03-05T00:10:19;2.58;;;2.38;;
21084;SDS011;34247;50.064;19.970;2023-03-05T00:11:24;1.80;;;1.70;;
21084;SDS011;34247;50.064;19.970;2023-03-05T00:12:32;2.80;;;2.58;;
21084;SDS011;34247;50.064;19.970;2023-03-05T00:13:36;2.90;;;2.70;;
21084;SDS011;34247;50.064;19.970;2023-03-05T00:14:40;3.00;;;2.65;;
21084;SDS011;34247;50.064;19.970;2023-03-05T00:15:47;3.33;;;2.83;;
21084;SDS011;34247;50.064;19.970;2023-03-05T00:16:51;5.32;;;2.70;;
21084;SDS011;34247;50.064;19.970;2023-03-05T00:17:55;2.17;;;2.05;;
21084;SDS011;34247;50.064;19.970;2023-03-05T00:18:59;7.22;;;3.10;;
21084;SDS011;34247;50.064;19.970;2023-03-05T00:20:03;3.33;;;2.63;;
21084;SDS011;34247;50.064;19.970;2023-03-05T00:21:20;3.03;;;2.83;;
21084;SDS011;34247;50.064;19.970;2023-03-05T00:22:34;2.05;;;1.95;;
21084;SDS011;34247;50.064;19.970;2023-03-05T00:23:38;4.50;;;3.17;;
21084;SDS011;34247;50.064;19.970;2023-03-05T00:24:42;2.83;;;2.63;;
21084;SDS011;34247;50.064;19.970;2023-03-05T00:25:46;7.30;;;2.38;;
21084;SDS011;34247;50.064;19.970;2023-03-05T00:26:50;4.88;;;2.28;;
21084;SDS011;34247;50.064;19.970;2023-03-05T00:27:55;5.03;;;2.53;;
21084;SDS011;34247;50.064;19.970;2023-03-05T00:28:59;2.65;;;2.45;;
21084;SDS011;34247;50.064;19.970;2023-03-05T00:30:06;3.35;;;2.63;;
21084;SDS011;34247;50.064;19.970;2023-03-05T00:31:12;3.40;;;2.42;;
21084;SDS011;34247;50.064;19.970;2023-03-05T00:32:16;4.25;;;2.95;;
21084;SDS011;34247;50.064;19.970;2023-03-05T00:33:20;2.60;;;2.50;;
21084;SDS011;34247;50.064;19.970;2023-03-05T00:34:24;3.38;;;2.50;;
21084;SDS011;34247;50.064;19.970;2023-03-05T00:35:29;2.42;;;2.25;;
21084;SDS011;34247;50.064;19.970;2023-03-05T00:36:40;3.33;;;2.47;;
21084;SDS011;34247;50.064;19.970;2023-03-05T00:37:50;3.60;;;2.78;;
21084;SDS011;34247;50.064;19.970;2023-03-05T00:38:54;4.57;;;2.17;;
21084;SDS011;34247;50.064;19.970;2023-03-05T00:40:00;2.05;;;1.95;;
21084;SDS011;34247;50.064;19.970;2023-03-05T00:41:07;2.90;;;2.42;;
21084;SDS011;34247;50.064;19.970;2023-03-05T00:42:11;2.67;;;2.47;;
21084;SDS011;34247;50.064;19.970;2023-03-05T00:43:15;5.00;;;2.28;;
21084;SDS011;34247;50.064;19.970;2023-03-05T00:44:19;2.95;;;2.70;;
21084;SDS011;34247;50.064;19.970;2023-03-05T00:45:23;2.40;;;2.22;;
21084;SDS011;34247;50.064;19.970;2023-03-05T00:46:27;5.43;;;2.85;;
21084;SDS011;34247;50.064;19.970;2023-03-05T00:47:31;2.25;;;2.08;;
21084;SDS011;34247;50.064;19.970;2023-03-05T00:48:35;3.05;;;2.15;;
21084;SDS011;34247;50.064;19.970;2023-03-05T00:49:39;3.33;;;2.78;;
21084;SDS011;34247;50.064;19.970;2023-03-05T00:50:46;2.60;;;2.17;;
21084;SDS011;34247;50.064;19.970;2023-03-05T00:51:50;3.10;;;2.45;;
21084;SDS011;34247;50.064;19.970;2023-03-05T00:52:54;2.67;;;2.47;;
21084;SDS011;34247;50.064;19.970;2023-03-05T00:53:58;6.57;;;2.20;;
21084;SDS011;34247;50.064;19.970;2023-03-05T00:55:03;2.63;;;2.22;;
21084;SDS011;34247;50.064;19.970;2023-03-05T00:56:14;2.67;;;2.47;;
21084;SDS011;34247;50.064;19.970;2023-03-05T00:57:18;5.05;;;2.33;;
21084;SDS011;34247;50.064;19.970;2023-03-05T00:58:22;3.17;;;2.13;;
21084;SDS011;34247;50.064;19.970;2023-03-05T00:59:26;4.05;;;2.47;;
21084;SDS011;34247;50.064;19.970;2023-03-05T01:00:31;1.98;;;1.88;;
21084;SDS011;34247;50.064;19.970;2023-03-05T01:01:35;2.53;;;2.42;;
21084;SDS011;34247;50.064;19.970;2023-03-05T01:02:39;2.22;;;1.90;;
21084;SDS011;34247;50.064;19.970;2023-03-05T01:03:43;2.53;;;2.33;;
21084;SDS011;34247;50.064;19.970;2023-03-05T01:04:47;3.50;;;2.30;;
21084;SDS011;34247;50.064;19.970;2023-03-05T01:05:51;2.60;;;2.20;;
21084;SDS011;34247;50.064;19.970;2023-03-05T01:06:55;2.13;;;2.03;;
21084;SDS011;34247;50.064;19.970;2023-03-05T01:07:59;3.38;;;2.00;;
21084;SDS011;34247;50.064;19.970;2023-03-05T01:09:09;3.15;;;1.95;;
21084;SDS011;34247;50.064;19.970;2023-03-05T01:10:13;3.00;;;2.03;;
21084;SDS011;34247;50.064;19.970;2023-03-05T01:11:17;4.47;;;2.40;;
21084;SDS011;34247;50.064;19.970;2023-03-05T01:12:21;2.47;;;2.08;;
21084;SDS011;34247;50.064;19.970;2023-03-05T01:13:25;1.90;;;1.80;;
21084;SDS011;34247;50.064;19.970;2023-03-05T01:14:29;3.97;;;2.03;;
21084;SDS011;34247;50.064;19.970;2023-03-05T01:15:33;2.67;;;2.47;;
21084;SDS011;34247;50.064;19.970;2023-03-05T01:16:37;3.17;;;2.25;;
21084;SDS011;34247;50.064;19.970;2023-03-05T01:17:41;3.10;;;2.85;;
21084;SDS011;34247;50.064;19.970;2023-03-05T01:18:44;3.28;;;2.10;;
21084;SDS011;34247;50.064;19.970;2023-03-05T01:19:48;7.70;;;2.13;;
21084;SDS011;34247;50.064;19.970;2023-03-05T01:20:52;3.38;;;2.42;;
21084;SDS011;34247;50.064;19.970;2023-03-05T01:21:56;3.40;;;2.13;;
21084;SDS011;34247;50.064;19.970;2023-03-05T01:23:01;3.90;;;2.08;;
21084;SDS011;34247;50.064;19.970;2023-03-05T01:24:06;4.78;;;2.38;;
21084;SDS011;34247;50.064;19.970;2023-03-05T01:25:17;2.42;;;2.22;;
21084;SDS011;34247;50.064;19.970;2023-03-05T01:26:21;2.10;;;1.98;;
21084;SDS011;34247;50.064;19.970;2023-03-05T01:27:26;5.97;;;2.35;;
21084;SDS011;34247;50.064;19.970;2023-03-05T01:28:30;3.92;;;2.42;;
21084;SDS011;34247;50.064;19.970;2023-03-05T01:29:35;2.55;;;2.35;;
21084;SDS011;34247;50.064;19.970;2023-03-05T01:30:39;2.65;;;2.22;;
21084;SDS011;34247;50.064;19.970;2023-03-05T01:31:46;4.63;;;3.03;;
21084;SDS011;34247;50.064;19.970;2023-03-05T01:32:50;5.68;;;2.63;;
21084;SDS011;34247;50.064;19.970;2023-03-05T01:33:54;3.65;;;2.78;;
21084;SDS011;34247;50.064;19.970;2023-03-05T01:34:59;5.55;;;2.50;;
21084;SDS011;34247;50.064;19.970;2023-03-05T01:36:11;9.90;;;3.13;;
21084;SDS011;34247;50.064;19.970;2023-03-05T01:37:19;2.90;;;2.03;;
21084;SDS011;34247;50.064;19.970;2023-03-05T01:38:22;9.93;;;1.80;;
21084;SDS011;34247;50.064;19.970;2023-03-05T01:39:26;2.92;;;2.00;;
21084;SDS011;34247;50.064;19.970;2023-03-05T01:40:32;2.15;;;1.92;;
21084;SDS011;34247;50.064;19.970;2023-03-05T01:41:36;2.88;;;2.15;;
21084;SDS011;34247;50.064;19.970;2023-03-05T01:42:44;1.80;;;1.70;;
21084;SDS011;34247;50.064;19.970;2023-03-05T01:44:00;5.65;;;2.20;;
21084;SDS011;34247;50.064;19.970;2023-03-05T01:45:10;2.97;;;2.00;;
21084;SDS011;34247;50.064;19.970;2023-03-05T01:46:21;4.53;;;1.63;;
21084;SDS011;34247;50.064;19.970;2023-03-05T01:47:39;2.10;;;2.00;;
21084;SDS011;34247;50.064;19.970;2023-03-05T01:48:43;4.47;;;2.17;;
21084;SDS011;34247;50.064;19.970;2023-03-05T01:49:55;4.13;;;2.22;;
21084;SDS011;34247;50.064;19.970;2023-03-05T01:50:59;2.25;;;2.13;;
21084;SDS011;34247;50.064;19.970;2023-03-05T01:52:10;3.60;;;2.47;;
21084;SDS011;34247;50.064;19.970;2023-03-05T01:53:23;3.28;;;2.15;;
21084;SDS011;34247;50.064;19.970;2023-03-05T01:54:28;7.05;;;2.30;;
21084;SDS011;34247;50.064;19.970;2023-03-05T01:55:49;2.03;;;1.92;;
21084;SDS011;34247;50.064;19.970;2023-03-05T01:56:54;1.88;;;1.77;;
21084;SDS011;34247;50.064;19.970;2023-03-05T01:58:05;2.40;;;2.20;;
21084;SDS011;34247;50.064;19.970;2023-03-05T01:59:15;3.00;;;2.42;;
21084;SDS011;34247;50.064;19.970;2023-03-05T02:00:24;2.10;;;2.00;;
21084;SDS011;34247;50.064;19.970;2023-03-05T02:01:52;1.80;;;1.70;;
21084;SDS011;34247;50.064;19.970;2023-03-05T02:03:12;3.20;;;2.88;;
21084;SDS011;34247;50.064;19.970;2023-03-05T02:04:22;2.88;;;2.08;;
21084;SDS011;34247;50.064;19.970;2023-03-05T02:05:36;1.98;;;1.88;;
21084;SDS011;34247;50.064;19.970;2023-03-05T02:06:47;3.75;;;2.08;;
21084;SDS011;34247;50.064;19.970;2023-03-05T02:07:54;3.50;;;1.92;;
21084;SDS011;34247;50.064;19.970;2023-03-05T02:09:01;5.20;;;2.00;;
21084;SDS011;34247;50.064;19.970;2023-03-05T02:10:30;4.45;;;1.70;;
21084;SDS011;34247;50.064;19.970;2023-03-05T02:12:08;11.70;;;2.47;;
21084;SDS011;34247;50.064;19.970;2023-03-05T02:13:17;2.38;;;2.17;;
21084;SDS011;34247;50.064;19.970;2023-03-05T02:14:27;1.80;;;1.70;;
21084;SDS011;34247;50.064;19.970;2023-03-05T02:15:32;4.93;;;1.80;;
21084;SDS011;34247;50.064;19.970;2023-03-05T02:16:37;7.03;;;1.85;;
21084;SDS011;34247;50.064;19.970;2023-03-05T02:17:42;2.25;;;2.05;;
21084;SDS011;34247;50.064;19.970;2023-03-05T02:18:47;6.18;;;2.38;;
21084;SDS011;34247;50.064;19.970;2023-03-05T02:19:54;1.85;;;1.60;;
21084;SDS011;34247;50.064;19.970;2023-03-05T02:21:10;4.60;;;2.40;;
21084;SDS011;34247;50.064;19.970;2023-03-05T02:22:15;2.60;;;2.03;;
21084;SDS011;34247;50.064;19.970;2023-03-05T02:23:26;1.90;;;1.80;;
21084;SDS011;34247;50.064;19.970;2023-03-05T02:24:39;10.30;;;2.33;;
21084;SDS011;34247;50.064;19.970;2023-03-05T02:25:43;2.67;;;1.55;;
21084;SDS011;34247;50.064;19.970;2023-03-05T02:26:47;1.85;;;1.75;;
21084;SDS011;34247;50.064;19.970;2023-03-05T02:27:56;2.08;;;1.83;;
21084;SDS011;34247;50.064;19.970;2023-03-05T02:29:09;2.20;;;1.85;;
21084;SDS011;34247;50.064;19.970;2023-03-05T02:30:20;4.30;;;1.70;;
21084;SDS011;34247;50.064;19.970;2023-03-05T02:31:25;3.22;;;1.80;;
21084;SDS011;34247;50.064;19.970;2023-03-05T02:32:30;2.17;;;2.08;;
21084;SDS011;34247;50.064;19.970;2023-03-05T02:33:33;2.30;;;1.80;;
21084;SDS011;34247;50.064;19.970;2023-03-05T02:34:41;2.05;;;1.95;;
21084;SDS011;34247;50.064;19.970;2023-03-05T02:35:45;2.28;;;1.90;;
21084;SDS011;34247;50.064;19.970;2023-03-05T02:36:52;1.67;;;1.58;;
21084;SDS011;34247;50.064;19.970;2023-03-05T02:37:59;2.00;;;1.90;;
21084;SDS011;34247;50.064;19.970;2023-03-05T02:39:03;1.70;;;1.60;;
21084;SDS011;34247;50.064;19.970;2023-03-05T02:40:09;3.60;;;2.15;;
21084;SDS011;34247;50.064;19.970;2023-03-05T02:41:15;3.05;;;1.50;;
21084;SDS011;34247;50.064;19.970;2023-03-05T02:42:19;1.95;;;1.80;;
21084;SDS011;34247;50.064;19.970;2023-03-05T02:43:23;1.98;;;1.88;;
21084;SDS011;34247;50.064;19.970;2023-03-05T02:44:28;1.88;;;1.73;;
21084;SDS011;34247;50.064;19.970;2023-03-05T02:45:32;1.70;;;1.60;;
21084;SDS011;34247;50.064;19.970;2023-03-05T02:46:36;1.60;;;1.60;;
21084;SDS011;34247;50.064;19.970;2023-03-05T02:47:40;1.65;;;1.55;;
21084;SDS011;34247;50.064;19.970;2023-03-05T02:48:44;1.80;;;1.70;;
21084;SDS011;34247;50.064;19.970;2023-03-05T02:49:47;2.65;;;1.73;;
21084;SDS011;34247;50.064;19.970;2023-03-05T02:50:52;2.30;;;1.90;;
21084;SDS011;34247;50.064;19.970;2023-03-05T02:51:57;3.53;;;1.95;;
21084;SDS011;34247;50.064;19.970;2023-03-05T02:53:00;2.40;;;2.22;;
21084;SDS011;34247;50.064;19.970;2023-03-05T02:54:13;1.92;;;1.60;;
21084;SDS011;34247;50.064;19.970;2023-03-05T02:55:18;1.70;;;1.60;;
21084;SDS011;34247;50.064;19.970;2023-03-05T02:56:22;1.90;;;1.80;;
21084;SDS011;34247;50.064;19.970;2023-03-05T02:57:26;1.65;;;1.65;;
21084;SDS011;34247;50.064;19.970;2023-03-05T02:58:30;3.40;;;1.90;;
21084;SDS011;34247;50.064;19.970;2023-03-05T02:59:34;1.35;;;1.35;;
21084;SDS011;34247;50.064;19.970;2023-03-05T03:03:00;2.90;;;2.00;;
21084;SDS011;34247;50.064;19.970;2023-03-05T03:04:14;1.73;;;1.63;;
21084;SDS011;34247;50.064;19.970;2023-03-05T03:05:30;2.20;;;1.85;;
21084;SDS011;34247;50.064;19.970;2023-03-05T03:06:50;1.85;;;1.75;;
21084;SDS011;34247;50.064;19.970;2023-03-05T03:07:53;1.75;;;1.65;;
21084;SDS011;34247;50.064;19.970;2023-03-05T03:08:57;1.80;;;1.70;;
21084;SDS011;34247;50.064;19.970;2023-03-05T03:10:02;1.73;;;1.63;;
21084;SDS011;34247;50.064;19.970;2023-03-05T03:11:19;3.60;;;2.92;;
21084;SDS011;34247;50.064;19.970;2023-03-05T03:12:23;2.42;;;1.90;;
21084;SDS011;34247;50.064;19.970;2023-03-05T03:13:27;3.72;;;2.30;;
21084;SDS011;34247;50.064;19.970;2023-03-05T03:14:31;1.88;;;1.77;;
21084;SDS011;34247;50.064;19.970;2023-03-05T03:15:41;4.30;;;2.70;;
21084;SDS011;34247;50.064;19.970;2023-03-05T03:16:45;1.88;;;1.77;;
21084;SDS011;34247;50.064;19.970;2023-03-05T03:17:50;1.60;;;1.50;;
21084;SDS011;34247;50.064;19.970;2023-03-05T03:18:54;2.42;;;1.83;;
21084;SDS011;34247;50.064;19.970;2023-03-05T03:19:59;1.60;;;1.60;;
21084;SDS011;34247;50.064;19.970;2023-03-05T03:21:04;1.30;;;1.30;;
21084;SDS011;34247;50.064;19.970;2023-03-05T03:22:11;1.70;;;1.60;;
21084;SDS011;34247;50.064;19.970;2023-03-05T03:23:17;1.50;;;1.40;;
21084;SDS011;34247;50.064;19.970;2023-03-05T03:24:21;1.58;;;1.58;;
21084;SDS011;34247;50.064;19.970;2023-03-05T03:25:25;1.63;;;1.52;;
21084;SDS011;34247;50.064;19.970;2023-03-05T03:26:29;1.80;;;1.70;;
21084;SDS011;34247;50.064;19.970;2023-03-05T03:27:33;1.60;;;1.50;;
21084;SDS011;34247;50.064;19.970;2023-03-05T03:28:37;1.58;;;1.58;;
21084;SDS011;34247;50.064;19.970;2023-03-05T03:29:41;1.83;;;1.73;;
21084;SDS011;34247;50.064;19.970;2023-03-05T03:30:45;1.60;;;1.50;;
21084;SDS011;34247;50.064;19.970;2023-03-05T03:31:49;2.25;;;2.05;;
21084;SDS011;34247;50.064;19.970;2023-03-05T03:32:53;1.80;;;1.70;;
21084;SDS011;34247;50.064;19.970;2023-03-05T03:33:57;1.80;;;1.70;;
21084;SDS011;34247;50.064;19.970;2023-03-05T03:35:01;1.85;;;1.52;;
21084;SDS011;34247;50.064;19.970;2023-03-05T03:36:08;2.17;;;2.00;;
21084;SDS011;34247;50.064;19.970;2023-03-05T03:37:12;2.17;;;2.08;;
21084;SDS011;34247;50.064;19.970;2023-03-05T03:38:16;1.85;;;1.75;;
21084;SDS011;34247;50.064;19.970;2023-03-05T03:39:20;1.60;;;1.60;;
21084;SDS011;34247;50.064;19.970;2023-03-05T03:40:25;1.70;;;1.60;;
21084;SDS011;34247;50.064;19.970;2023-03-05T03:41:29;1.73;;;1.63;;
21084;SDS011;34247;50.064;19.970;2023-03-05T03:42:34;1.92;;;1.73;;
21084;SDS011;34247;50.064;19.970;2023-03-05T03:43:40;4.05;;;1.67;;
21084;SDS011;34247;50.064;19.970;2023-03-05T03:44:44;3.05;;;1.63;;
21084;SDS011;34247;50.064;19.970;2023-03-05T03:45:48;4.35;;;2.72;;
21084;SDS011;34247;50.064;19.970;2023-03-05T03:46:52;1.52;;;1.50;;
21084;SDS011;34247;50.064;19.970;2023-03-05T03:47:57;1.85;;;1.75;;
21084;SDS011;34247;50.064;19.970;2023-03-05T03:49:07;1.52;;;1.42;;
21084;SDS011;34247;50.064;19.970;2023-03-05T03:50:25;1.35;;;1.33;;
21084;SDS011;34247;50.064;19.970;2023-03-05T03:51:41;2.63;;;1.55;;
21084;SDS011;34247;50.064;19.970;2023-03-05T03:52:46;1.63;;;1.52;;
21084;SDS011;34247;50.064;19.970;2023-03-05T03:53:50;1.83;;;1.70;;
21084;SDS011;34247;50.064;19.970;2023-03-05T03:54:55;2.05;;;1.92;;
21084;SDS011;34247;50.064;19.970;2023-03-05T03:56:05;2.28;;;2.17;;
21084;SDS011;34247;50.064;19.970;2023-03-05T03:57:11;2.45;;;1.65;;
21084;SDS011;34247;50.064;19.970;2023-03-05T03:58:15;2.15;;;2.05;;
21084;SDS011;34247;50.064;19.970;2023-03-05T03:59:19;1.42;;;1.40;;
21084;SDS011;34247;50.064;19.970;2023-03-05T04:00:23;2.08;;;1.98;;
21084;SDS011;34247;50.064;19.970;2023-03-05T04:01:27;1.60;;;1.55;;
21084;SDS011;34247;50.064;19.970;2023-03-05T04:02:32;2.17;;;2.08;;
21084;SDS011;34247;50.064;19.970;2023-03-05T04:03:36;2.30;;;2.00;;
21084;SDS011;34247;50.064;19.970;2023-03-05T04:04:40;2.05;;;1.88;;
21084;SDS011;34247;50.064;19.970;2023-03-05T04:05:44;1.60;;;1.50;;
21084;SDS011;34247;50.064;19.970;2023-03-05T04:06:48;2.05;;;1.73;;
21084;SDS011;34247;50.064;19.970;2023-03-05T04:07:51;1.50;;;1.50;;
21084;SDS011;34247;50.064;19.970;2023-03-05T04:08:56;1.52;;;1.45;;
21084;SDS011;34247;50.064;19.970;2023-03-05T04:10:01;1.95;;;1.85;;
21084;SDS011;34247;50.064;19.970;2023-03-05T04:11:11;10.55;;;3.05;;
21084;SDS011;34247;50.064;19.970;2023-03-05T04:12:18;2.10;;;2.00;;
21084;SDS011;34247;50.064;19.970;2023-03-05T04:13:24;4.55;;;2.05;;
21084;SDS011;34247;50.064;19.970;2023-03-05T04:14:28;1.90;;;1.80;;
21084;SDS011;34247;50.064;19.970;2023-03-05T04:15:33;1.50;;;1.50;;
21084;SDS011;34247;50.064;19.970;2023-03-05T04:16:37;1.85;;;1.75;;
21084;SDS011;34247;50.064;19.970;2023-03-05T04:17:41;1.65;;;1.60;;
21084;SDS011;34247;50.064;19.970;2023-03-05T04:18:45;2.10;;;1.75;;
21084;SDS011;34247;50.064;19.970;2023-03-05T04:19:49;1.70;;;1.63;;
21084;SDS011;34247;50.064;19.970;2023-03-05T04:20:53;2.70;;;2.50;;
21084;SDS011;34247;50.064;19.970;2023-03-05T04:21:57;2.00;;;1.80;;
21084;SDS011;34247;50.064;19.970;2023-03-05T04:23:01;1.52;;;1.50;;
21084;SDS011;34247;50.064;19.970;2023-03-05T04:24:09;2.95;;;2.20;;
21084;SDS011;34247;50.064;19.970;2023-03-05T04:25:13;1.77;;;1.50;;
21084;SDS011;34247;50.064;19.970;2023-03-05T04:26:17;1.48;;;1.48;;
21084;SDS011;34247;50.064;19.970;2023-03-05T04:27:21;2.70;;;2.50;;
21084;SDS011;34247;50.064;19.970;2023-03-05T04:28:25;4.93;;;2.28;;
21084;SDS011;34247;50.064;19.970;2023-03-05T04:29:29;1.42;;;1.42;;
21084;SDS011;34247;50.064;19.970;2023-03-05T04:30:34;1.90;;;1.80;;
21084;SDS011;34247;50.064;19.970;2023-03-05T04:31:39;1.50;;;1.50;;
21084;SDS011;34247;50.064;19.970;2023-03-05T04:32:43;1.40;;;1.40;;
21084;SDS011;34247;50.064;19.970;2023-03-05T04:33:46;1.50;;;1.50;;
21084;SDS011;34247;50.064;19.970;2023-03-05T04:34:50;1.48;;;1.40;;
21084;SDS011;34247;50.064;19.970;2023-03-05T04:35:54;1.33;;;1.33;;
21084;SDS011;34247;50.064;19.970;2023-03-05T04:36:58;2.03;;;1.88;;
21084;SDS011;34247;50.064;19.970;2023-03-05T04:38:02;2.22;;;2.05;;
21084;SDS011;34247;50.064;19.970;2023-03-05T04:39:07;1.92;;;1.83;;
21084;SDS011;34247;50.064;19.970;2023-03-05T04:40:12;2.05;;;1.92;;
21084;SDS011;34247;50.064;19.970;2023-03-05T04:41:16;1.77;;;1.67;;
21084;SDS011;34247;50.064;19.970;2023-03-05T04:42:20;2.40;;;2.20;;
21084;SDS011;34247;50.064;19.970;2023-03-05T04:43:25;2.00;;;1.65;;
21084;SDS011;34247;50.064;19.970;2023-03-05T04:44:29;2.15;;;2.00;;
21084;SDS011;34247;50.064;19.970;2023-03-05T04:45:33;2.45;;;2.25;;
21084;SDS011;34247;50.064;19.970;2023-03-05T04:46:36;3.58;;;2.47;;
21084;SDS011;34247;50.064;19.970;2023-03-05T04:47:41;5.00;;;1.80;;
21084;SDS011;34247;50.064;19.970;2023-03-05T04:48:46;6.13;;;2.45;;
21084;SDS011;34247;50.064;19.970;2023-03-05T04:49:49;3.05;;;2.85;;
21084;SDS011;34247;50.064;19.970;2023-03-05T04:50:53;1.95;;;1.85;;
21084;SDS011;34247;50.064;19.970;2023-03-05T04:51:59;3.75;;;3.00;;
21084;SDS011;34247;50.064;19.970;2023-03-05T04:53:03;5.60;;;2.67;;
21084;SDS011;34247;50.064;19.970;2023-03-05T04:54:11;5.00;;;2.88;;
21084;SDS011;34247;50.064;19.970;2023-03-05T04:55:15;4.03;;;2.72;;
21084;SDS011;34247;50.064;19.970;2023-03-05T04:56:20;2.88;;;1.90;;
21084;SDS011;34247;50.064;19.970;2023-03-05T04:57:24;3.28;;;2.60;;
21084;SDS011;34247;50.064;19.970;2023-03-05T04:58:28;2.30;;;2.17;;
21084;SDS011;34247;50.064;19.970;2023-03-05T04:59:32;10.80;;;2.95;;
21084;SDS011;34247;50.064;19.970;2023-03-05T05:00:36;3.30;;;1.98;;
21084;SDS011;34247;50.064;19.970;2023-03-05T05:01:40;4.53;;;2.10;;
21084;SDS011;34247;50.064;19.970;2023-03-05T05:02:46;2.55;;;2.33;;
21084;SDS011;34247;50.064;19.970;2023-03-05T05:03:52;2.75;;;2.55;;
21084;SDS011;34247;50.064;19.970;2023-03-05T05:04:56;3.10;;;2.30;;
21084;SDS011;34247;50.064;19.970;2023-03-05T05:06:00;2.97;;;2.00;;
21084;SDS011;34247;50.064;19.970;2023-03-05T05:07:05;2.42;;;2.22;;
21084;SDS011;34247;50.064;19.970;2023-03-05T05:08:10;2.30;;;1.83;;
21084;SDS011;34247;50.064;19.970;2023-03-05T05:09:14;3.28;;;2.33;;
21084;SDS011;34247;50.064;19.970;2023-03-05T05:10:18;2.42;;;2.00;;
21084;SDS011;34247;50.064;19.970;2023-03-05T05:11:23;2.25;;;1.85;;
21084;SDS011;34247;50.064;19.970;2023-03-05T05:12:28;2.42;;;2.22;;
21084;SDS011;34247;50.064;19.970;2023-03-05T05:13:33;4.75;;;2.22;;
21084;SDS011;34247;50.064;19.970;2023-03-05T05:14:37;4.80;;;2.20;;
21084;SDS011;34247;50.064;19.970;2023-03-05T05:15:40;1.98;;;1.85;;
21084;SDS011;34247;50.064;19.970;2023-03-05T05:16:44;1.95;;;1.85;;
21084;SDS011;34247;50.064;19.970;2023-03-05T05:17:48;6.88;;;2.53;;
21084;SDS011;34247;50.064;19.970;2023-03-05T05:18:52;2.60;;;2.33;;
21084;SDS011;34247;50.064;19.970;2023-03-05T05:19:56;2.28;;;2.13;;
21084;SDS011;34247;50.064;19.970;2023-03-05T05:21:00;2.40;;;2.20;;
21084;SDS011;34247;50.064;19.970;2023-03-05T05:22:03;4.47;;;2.33;;
21084;SDS011;34247;50.064;19.970;2023-03-05T05:23:11;4.32;;;2.50;;
21084;SDS011;34247;50.064;19.970;2023-03-05T05:24:15;5.28;;;2.63;;
21084;SDS011;34247;50.064;19.970;2023-03-05T05:25:19;4.15;;;2.10;;
21084;SDS011;34247;50.064;19.970;2023-03-05T05:26:23;2.47;;;2.28;;
21084;SDS011;34247;50.064;19.970;2023-03-05T05:27:28;2.85;;;2.63;;
21084;SDS011;34247;50.064;19.970;2023-03-05T05:28:32;2.65;;;2.45;;
21084;SDS011;34247;50.064;19.970;2023-03-05T05:29:37;5.70;;;2.38;;
21084;SDS011;34247;50.064;19.970;2023-03-05T05:30:41;5.28;;;2.60;;
21084;SDS011;34247;50.064;19.970;2023-03-05T05:31:45;3.08;;;2.70;;
21084;SDS011;34247;50.064;19.970;2023-03-05T05:32:49;2.72;;;2.15;;
21084;SDS011;34247;50.064;19.970;2023-03-05T05:33:53;2.85;;;2.65;;
21084;SDS011;34247;50.064;19.970;2023-03-05T05:34:57;6.50;;;2.95;;
21084;SDS011;34247;50.064;19.970;2023-03-05T05:36:03;5.63;;;3.10;;
21084;SDS011;34247;50.064;19.970;2023-03-05T05:37:10;3.60;;;3.08;;
21084;SDS011;34247;50.064;19.970;2023-03-05T05:38:15;3.40;;;2.97;;
21084;SDS011;34247;50.064;19.970;2023-03-05T05:39:18;4.40;;;3.05;;
21084;SDS011;34247;50.064;19.970;2023-03-05T05:40:22;5.07;;;2.50;;
21084;SDS011;34247;50.064;19.970;2023-03-05T05:41:26;2.45;;;2.35;;
21084;SDS011;34247;50.064;19.970;2023-03-05T05:42:30;4.03;;;3.10;;
21084;SDS011;34247;50.064;19.970;2023-03-05T05:43:35;7.53;;;2.88;;
21084;SDS011;34247;50.064;19.970;2023-03-05T05:44:42;5.25;;;2.78;;
21084;SDS011;34247;50.064;19.970;2023-03-05T05:45:47;5.03;;;2.65;;
21084;SDS011;34247;50.064;19.970;2023-03-05T05:46:51;2.78;;;2.47;;
21084;SDS011;34247;50.064;19.970;2023-03-05T05:47:55;2.92;;;2.72;;
21084;SDS011;34247;50.064;19.970;2023-03-05T05:48:59;4.55;;;2.58;;
21084;SDS011;34247;50.064;19.970;2023-03-05T05:50:03;3.42;;;3.03;;
21084;SDS011;34247;50.064;19.970;2023-03-05T05:51:12;5.65;;;2.45;;
21084;SDS011;34247;50.064;19.970;2023-03-05T05:52:20;3.17;;;2.42;;
21084;SDS011;34247;50.064;19.970;2023-03-05T05:53:26;3.35;;;3.05;;
21084;SDS011;34247;50.064;19.970;2023-03-05T05:54:32;3.42;;;2.58;;
21084;SDS011;34247;50.064;19.970;2023-03-05T05:55:38;3.83;;;2.33;;
21084;SDS011;34247;50.064;19.970;2023-03-05T05:56:43;3.53;;;2.53;;
21084;SDS011;34247;50.064;19.970;2023-03-05T05:57:47;2.70;;;2.53;;
21084;SDS011;34247;50.064;19.970;2023-03-05T05:58:51;3.38;;;2.30;;
21084;SDS011;34247;50.064;19.970;2023-03-05T05:59:55;2.70;;;2.50;;
21084;SDS011;34247;50.064;19.970;2023-03-05T06:00:59;7.80;;;2.70;;
21084;SDS011;34247;50.064;19.970;2023-03-05T06:02:05;3.83;;;3.50;;
21084;SDS011;34247;50.064;19.970;2023-03-05T06:03:20;3.10;;;2.90;;
21084;SDS011;34247;50.064;19.970;2023-03-05T06:04:24;5.93;;;3.65;;
21084;SDS011;34247;50.064;19.970;2023-03-05T06:05:28;4.05;;;3.20;;
21084;SDS011;34247;50.064;19.970;2023-03-05T06:06:32;8.07;;;2.88;;
21084;SDS011;34247;50.064;19.970;2023-03-05T06:07:36;3.50;;;3.20;;
21084;SDS011;34247;50.064;19.970;2023-03-05T06:08:43;5.88;;;3.45;;
21084;SDS011;34247;50.064;19.970;2023-03-05T06:09:47;9.05;;;2.80;;
21084;SDS011;34247;50.064;19.970;2023-03-05T06:10:53;9.88;;;4.07;;
21084;SDS011;34247;50.064;19.970;2023-03-05T06:11:57;5.95;;;4.35;;
21084;SDS011;34247;50.064;19.970;2023-03-05T06:13:01;6.30;;;3.72;;
21084;SDS011;34247;50.064;19.970;2023-03-05T06:14:09;6.63;;;3.80;;
21084;SDS011;34247;50.064;19.970;2023-03-05T06:15:15;3.17;;;2.92;;
21084;SDS011;34247;50.064;19.970;2023-03-05T06:16:22;4.30;;;3.75;;
21084;SDS011;34247;50.064;19.970;2023-03-05T06:17:27;2.97;;;2.50;;
21084;SDS011;34247;50.064;19.970;2023-03-05T06:18:33;4.10;;;2.92;;
21084;SDS011;34247;50.064;19.970;2023-03-05T06:19:37;5.18;;;3.40;;
21084;SDS011;34247;50.064;19.970;2023-03-05T06:20:41;4.20;;;3.45;;
21084;SDS011;34247;50.064;19.970;2023-03-05T06:21:44;4.70;;;3.65;;
21084;SDS011;34247;50.064;19.970;2023-03-05T06:22:50;3.65;;;2.70;;
21084;SDS011;34247;50.064;19.970;2023-03-05T06:23:54;3.78;;;3.42;;
21084;SDS011;34247;50.064;19.970;2023-03-05T06:25:00;6.30;;;3.65;;
21084;SDS011;34247;50.064;19.970;2023-03-05T06:26:06;4.43;;;4.03;;
21084;SDS011;34247;50.064;19.970;2023-03-05T06:27:15;5.78;;;3.85;;
21084;SDS011;34247;50.064;19.970;2023-03-05T06:28:19;7.10;;;2.60;;
21084;SDS011;34247;50.064;19.970;2023-03-05T06:29:23;4.70;;;3.47;;
21084;SDS011;34247;50.064;19.970;2023-03-05T06:30:27;4.65;;;3.13;;
21084;SDS011;34247;50.064;19.970;2023-03-05T06:31:32;4.32;;;3.30;;
21084;SDS011;34247;50.064;19.970;2023-03-05T06:32:38;8.52;;;4.72;;